sensor_id;sensor_type;location;lat;lon;timestamp;pressure;altitude;pressure_sealevel;temperature;humidity
68628;BME280;55611;48.602;9.490;2022-07-29T00:00:52;96730;;;22.5;51.5
68628;BME280;55611;48.602;9.490;2022-07-29T00:03:22;96720;;;22.4;51.5
68628;BME280;55611;48.602;9.490;2022-07-29T00:05:53;96720;;;22.4;51.5
68628;BME280;55611;48.602;9.490;2022-07-29T00:08:23;96720;;;22.5;51.5
68628;BME280;55611;48.602;9.490;2022-07-29T00:10:54;96720;;;22.5;51.5
68628;BME280;55611;48.602;9.490;2022-07-29T00:13:24;96720;;;22.5;51.5
68628;BME280;55611;48.602;9.490;2022-07-29T00:15:55;96720;;;22.6;51.5
68628;BME280;55611;48.602;9.490;2022-07-29T00:18:25;96730;;;22.5;51.5
68628;BME280;55611;48.602;9.490;2022-07-29T00:20:56;96730;;;22.4;51.5
68628;BME280;55611;48.602;9.490;2022-07-29T00:23:26;96720;;;22.5;52
68628;BME280;55611;48.602;9.490;2022-07-29T00:25:57;96720;;;22.5;52
68628;BME280;55611;48.602;9.490;2022-07-29T00:28:27;96720;;;22.6;52
68628;BME280;55611;48.602;9.490;2022-07-29T00:30:58;96720;;;22.6;52
68628;BME280;55611;48.602;9.490;2022-07-29T00:33:28;96720;;;22.5;52
68628;BME280;55611;48.602;9.490;2022-07-29T00:35:59;96710;;;22.4;52
68628;BME280;55611;48.602;9.490;2022-07-29T00:38:30;96700;;;22.5;52
68628;BME280;55611;48.602;9.490;2022-07-29T00:41:00;96720;;;22.5;52
68628;BME280;55611;48.602;9.490;2022-07-29T00:43:31;96710;;;22.5;52
68628;BME280;55611;48.602;9.490;2022-07-29T00:46:01;96700;;;22.5;52
68628;BME280;55611;48.602;9.490;2022-07-29T00:48:32;96710;;;22.5;52
68628;BME280;55611;48.602;9.490;2022-07-29T00:51:03;96700;;;22.5;52
68628;BME280;55611;48.602;9.490;2022-07-29T00:53:33;96700;;;22.5;52
68628;BME280;55611;48.602;9.490;2022-07-29T00:56:03;96700;;;22.4;52
68628;BME280;55611;48.602;9.490;2022-07-29T00:58:34;96690;;;22.3;52
68628;BME280;55611;48.602;9.490;2022-07-29T01:01:04;96690;;;22.1;52
68628;BME280;55611;48.602;9.490;2022-07-29T01:03:35;96690;;;22.2;52
68628;BME280;55611;48.602;9.490;2022-07-29T01:06:05;96700;;;22.1;52
68628;BME280;55611;48.602;9.490;2022-07-29T01:08:36;96680;;;22.2;52.5
68628;BME280;55611;48.602;9.490;2022-07-29T01:11:06;96690;;;22.2;52
68628;BME280;55611;48.602;9.490;2022-07-29T01:13:37;96690;;;22.1;52
68628;BME280;55611;48.602;9.490;2022-07-29T01:16:10;96690;;;22.1;52
68628;BME280;55611;48.602;9.490;2022-07-29T01:18:39;96670;;;22.1;52
68628;BME280;55611;48.602;9.490;2022-07-29T01:21:27;96680;;;22.1;52.5
68628;BME280;55611;48.602;9.490;2022-07-29T01:29:44;96670;;;22.2;52.5
68628;BME280;55611;48.602;9.490;2022-07-29T01:31:10;96680;;;22.1;52.5
68628;BME280;55611;48.602;9.490;2022-07-29T01:33:41;96670;;;22.1;52
68628;BME280;55611;48.602;9.490;2022-07-29T01:36:13;96670;;;22.1;52
68628;BME280;55611;48.602;9.490;2022-07-29T01:38:42;96670;;;22.1;52.5
68628;BME280;55611;48.602;9.490;2022-07-29T01:41:14;96660;;;22.1;52.5
68628;BME280;55611;48.602;9.490;2022-07-29T01:43:48;96670;;;22.1;52.5
68628;BME280;55611;48.602;9.490;2022-07-29T01:46:14;96660;;;22.1;52.5
68628;BME280;55611;48.602;9.490;2022-07-29T01:48:45;96660;;;22.1;52.5
68628;BME280;55611;48.602;9.490;2022-07-29T01:51:19;96660;;;21.9;52.5
68628;BME280;55611;48.602;9.490;2022-07-29T01:53:50;96670;;;21.8;52.5
68628;BME280;55611;48.602;9.490;2022-07-29T01:56:16;96670;;;21.7;52.5
68628;BME280;55611;48.602;9.490;2022-07-29T01:58:46;96670;;;21.7;52.5
68628;BME280;55611;48.602;9.490;2022-07-29T02:01:17;96670;;;21.7;52.5
68628;BME280;55611;48.602;9.490;2022-07-29T02:03:47;96670;;;21.6;52.5
68628;BME280;55611;48.602;9.490;2022-07-29T02:06:18;96670;;;21.7;52.5
68628;BME280;55611;48.602;9.490;2022-07-29T02:08:48;96670;;;21.8;53
68628;BME280;55611;48.602;9.490;2022-07-29T02:11:19;96680;;;21.8;53
68628;BME280;55611;48.602;9.490;2022-07-29T02:13:49;96680;;;21.7;53
68628;BME280;55611;48.602;9.490;2022-07-29T02:16:21;96670;;;21.8;53
68628;BME280;55611;48.602;9.490;2022-07-29T02:18:51;96670;;;21.8;53
68628;BME280;55611;48.602;9.490;2022-07-29T02:21:23;96670;;;21.8;53
68628;BME280;55611;48.602;9.490;2022-07-29T02:23:51;96660;;;21.7;53
68628;BME280;55611;48.602;9.490;2022-07-29T02:26:23;96660;;;21.7;53
68628;BME280;55611;48.602;9.490;2022-07-29T02:28:54;96670;;;21.6;53
68628;BME280;55611;48.602;9.490;2022-07-29T02:31:24;96670;;;21.6;53
68628;BME280;55611;48.602;9.490;2022-07-29T02:33:53;96670;;;21.6;53
68628;BME280;55611;48.602;9.490;2022-07-29T02:36:24;96670;;;21.6;53
68628;BME280;55611;48.602;9.490;2022-07-29T02:38:55;96670;;;21.6;53
68628;BME280;55611;48.602;9.490;2022-07-29T02:41:28;96670;;;21.7;53
68628;BME280;55611;48.602;9.490;2022-07-29T02:43:57;96670;;;21.8;53
68628;BME280;55611;48.602;9.490;2022-07-29T02:46:29;96670;;;21.8;53
68628;BME280;55611;48.602;9.490;2022-07-29T02:48:59;96670;;;21.9;53
68628;BME280;55611;48.602;9.490;2022-07-29T02:51:29;96670;;;21.9;53
68628;BME280;55611;48.602;9.490;2022-07-29T02:53:57;96670;;;21.9;53
68628;BME280;55611;48.602;9.490;2022-07-29T02:56:28;96670;;;21.9;53
68628;BME280;55611;48.602;9.490;2022-07-29T02:58:59;96660;;;21.9;53
68628;BME280;55611;48.602;9.490;2022-07-29T03:01:30;96670;;;21.8;53
68628;BME280;55611;48.602;9.490;2022-07-29T03:04:00;96670;;;21.8;53
68628;BME280;55611;48.602;9.490;2022-07-29T03:06:30;96670;;;21.8;53
68628;BME280;55611;48.602;9.490;2022-07-29T03:09:00;96660;;;21.8;53
68628;BME280;55611;48.602;9.490;2022-07-29T03:11:31;96660;;;21.8;53
68628;BME280;55611;48.602;9.490;2022-07-29T03:14:02;96660;;;21.8;53
68628;BME280;55611;48.602;9.490;2022-07-29T03:16:33;96660;;;21.8;53
68628;BME280;55611;48.602;9.490;2022-07-29T03:19:03;96660;;;21.8;53
68628;BME280;55611;48.602;9.490;2022-07-29T03:21:33;96660;;;21.8;53
68628;BME280;55611;48.602;9.490;2022-07-29T03:24:04;96660;;;21.7;53
68628;BME280;55611;48.602;9.490;2022-07-29T03:26:34;96660;;;21.6;53
68628;BME280;55611;48.602;9.490;2022-07-29T03:29:05;96660;;;21.5;53
68628;BME280;55611;48.602;9.490;2022-07-29T03:31:35;96660;;;21.4;53.5
68628;BME280;55611;48.602;9.490;2022-07-29T03:34:06;96650;;;21.3;53.5
68628;BME280;55611;48.602;9.490;2022-07-29T03:36:36;96650;;;21.3;53.5
68628;BME280;55611;48.602;9.490;2022-07-29T03:39:07;96650;;;21.3;53.5
68628;BME280;55611;48.602;9.490;2022-07-29T03:41:37;96650;;;21.4;53.5
68628;BME280;55611;48.602;9.490;2022-07-29T03:44:08;96660;;;21.4;53.5
68628;BME280;55611;48.602;9.490;2022-07-29T03:46:38;96660;;;21.2;53.5
68628;BME280;55611;48.602;9.490;2022-07-29T03:49:09;96670;;;21.1;53.5
68628;BME280;55611;48.602;9.490;2022-07-29T03:51:39;96670;;;21.1;53.5
68628;BME280;55611;48.602;9.490;2022-07-29T03:54:10;96670;;;21.1;53.5
68628;BME280;55611;48.602;9.490;2022-07-29T03:56:42;96680;;;21.1;53.5
68628;BME280;55611;48.602;9.490;2022-07-29T03:59:11;96680;;;21.1;53.5
68628;BME280;55611;48.602;9.490;2022-07-29T04:01:41;96680;;;21;53.5
68628;BME280;55611;48.602;9.490;2022-07-29T04:04:12;96690;;;21;53.5
68628;BME280;55611;48.602;9.490;2022-07-29T04:06:45;96690;;;20.9;53.5
68628;BME280;55611;48.602;9.490;2022-07-29T04:09:13;96690;;;20.9;53.5
68628;BME280;55611;48.602;9.490;2022-07-29T04:11:43;96700;;;20.9;53.5
68628;BME280;55611;48.602;9.490;2022-07-29T04:14:14;96700;;;20.9;53.5
68628;BME280;55611;48.602;9.490;2022-07-29T04:16:44;96700;;;20.9;53.5
68628;BME280;55611;48.602;9.490;2022-07-29T04:19:15;96700;;;21;53.5
68628;BME280;55611;48.602;9.490;2022-07-29T04:21:45;96710;;;21.1;53.5
68628;BME280;55611;48.602;9.490;2022-07-29T04:24:16;96700;;;21.2;53.5
68628;BME280;55611;48.602;9.490;2022-07-29T04:26:47;96710;;;21.3;53.5
68628;BME280;55611;48.602;9.490;2022-07-29T04:29:17;96710;;;21.4;53.5
68628;BME280;55611;48.602;9.490;2022-07-29T04:31:48;96710;;;21.5;53.5
68628;BME280;55611;48.602;9.490;2022-07-29T04:34:18;96700;;;21.6;53.5
68628;BME280;55611;48.602;9.490;2022-07-29T04:36:49;96720;;;21.5;54
68628;BME280;55611;48.602;9.490;2022-07-29T04:39:19;96720;;;21.3;54.5
68628;BME280;55611;48.602;9.490;2022-07-29T04:41:50;96720;;;21.2;55
68628;BME280;55611;48.602;9.490;2022-07-29T04:44:20;96720;;;21.1;55
68628;BME280;55611;48.602;9.490;2022-07-29T04:46:51;96720;;;21.1;55.5
68628;BME280;55611;48.602;9.490;2022-07-29T04:49:21;96720;;;21.1;55
68628;BME280;55611;48.602;9.490;2022-07-29T04:51:52;96720;;;21.1;55.5
68628;BME280;55611;48.602;9.490;2022-07-29T04:54:22;96720;;;21.1;55.5
68628;BME280;55611;48.602;9.490;2022-07-29T04:56:53;96720;;;21.1;55.5
68628;BME280;55611;48.602;9.490;2022-07-29T04:59:23;96720;;;21.3;55
68628;BME280;55611;48.602;9.490;2022-07-29T05:01:54;96710;;;21.5;54.5
68628;BME280;55611;48.602;9.490;2022-07-29T05:04:24;96710;;;21.5;54.5
68628;BME280;55611;48.602;9.490;2022-07-29T05:06:55;96720;;;21.6;54
68628;BME280;55611;48.602;9.490;2022-07-29T05:09:25;96720;;;21.7;54
68628;BME280;55611;48.602;9.490;2022-07-29T05:11:56;96720;;;21.6;54
68628;BME280;55611;48.602;9.490;2022-07-29T05:14:26;96720;;;21.6;54
68628;BME280;55611;48.602;9.490;2022-07-29T05:16:57;96720;;;21.7;54
68628;BME280;55611;48.602;9.490;2022-07-29T05:19:27;96720;;;21.8;54
68628;BME280;55611;48.602;9.490;2022-07-29T05:21:58;96720;;;21.9;54
68628;BME280;55611;48.602;9.490;2022-07-29T05:24:28;96710;;;22;54
68628;BME280;55611;48.602;9.490;2022-07-29T05:26:59;96710;;;22.2;54
68628;BME280;55611;48.602;9.490;2022-07-29T05:29:29;96720;;;22.4;54
68628;BME280;55611;48.602;9.490;2022-07-29T05:32:00;96720;;;22.5;54
68628;BME280;55611;48.602;9.490;2022-07-29T05:34:31;96720;;;22.7;54
68628;BME280;55611;48.602;9.490;2022-07-29T05:37:01;96720;;;22.7;54
68628;BME280;55611;48.602;9.490;2022-07-29T05:39:31;96720;;;22.8;54
68628;BME280;55611;48.602;9.490;2022-07-29T05:42:02;96720;;;22.9;54
68628;BME280;55611;48.602;9.490;2022-07-29T05:44:35;96720;;;22.9;53.5
68628;BME280;55611;48.602;9.490;2022-07-29T05:47:03;96720;;;23;54
68628;BME280;55611;48.602;9.490;2022-07-29T05:49:33;96720;;;23.1;54
68628;BME280;55611;48.602;9.490;2022-07-29T05:52:04;96730;;;23.1;54
68628;BME280;55611;48.602;9.490;2022-07-29T05:54:35;96720;;;23.2;54
68628;BME280;55611;48.602;9.490;2022-07-29T05:57:05;96720;;;23.2;54
68628;BME280;55611;48.602;9.490;2022-07-29T05:59:36;96730;;;23.2;54
68628;BME280;55611;48.602;9.490;2022-07-29T06:02:06;96730;;;23.3;54
68628;BME280;55611;48.602;9.490;2022-07-29T06:04:37;96730;;;23.2;54
68628;BME280;55611;48.602;9.490;2022-07-29T06:07:07;96740;;;23.2;54
68628;BME280;55611;48.602;9.490;2022-07-29T06:09:38;96740;;;23.4;54
68628;BME280;55611;48.602;9.490;2022-07-29T06:12:08;96740;;;23.5;53.5
68628;BME280;55611;48.602;9.490;2022-07-29T06:14:39;96740;;;23.5;53.5
68628;BME280;55611;48.602;9.490;2022-07-29T06:17:09;96750;;;23.6;53.5
68628;BME280;55611;48.602;9.490;2022-07-29T06:19:40;96750;;;23.7;53.5
68628;BME280;55611;48.602;9.490;2022-07-29T06:22:10;96740;;;23.9;53.5
68628;BME280;55611;48.602;9.490;2022-07-29T06:24:41;96730;;;24;53.5
68628;BME280;55611;48.602;9.490;2022-07-29T06:27:11;96740;;;24;53.5
68628;BME280;55611;48.602;9.490;2022-07-29T06:29:42;96740;;;24.1;53.5
68628;BME280;55611;48.602;9.490;2022-07-29T06:32:12;96740;;;24.1;53.5
68628;BME280;55611;48.602;9.490;2022-07-29T06:34:43;96740;;;24.1;53.5
68628;BME280;55611;48.602;9.490;2022-07-29T06:37:13;96740;;;24.1;53.5
68628;BME280;55611;48.602;9.490;2022-07-29T06:39:44;96750;;;24.1;53.5
68628;BME280;55611;48.602;9.490;2022-07-29T06:42:14;96750;;;24.1;53.5
68628;BME280;55611;48.602;9.490;2022-07-29T06:44:45;96750;;;24;53.5
68628;BME280;55611;48.602;9.490;2022-07-29T06:47:15;96750;;;23.9;53.5
68628;BME280;55611;48.602;9.490;2022-07-29T06:49:46;96750;;;23.9;53.5
68628;BME280;55611;48.602;9.490;2022-07-29T06:52:16;96750;;;23.9;53.5
68628;BME280;55611;48.602;9.490;2022-07-29T06:54:47;96760;;;23.9;53.5
68628;BME280;55611;48.602;9.490;2022-07-29T06:57:17;96760;;;24;54
68628;BME280;55611;48.602;9.490;2022-07-29T06:59:48;96770;;;24.1;54
68628;BME280;55611;48.602;9.490;2022-07-29T07:02:18;96760;;;24.2;54
68628;BME280;55611;48.602;9.490;2022-07-29T07:04:49;96760;;;24.3;54
68628;BME280;55611;48.602;9.490;2022-07-29T07:07:20;96760;;;24.3;54
68628;BME280;55611;48.602;9.490;2022-07-29T07:09:50;96760;;;24.5;54
68628;BME280;55611;48.602;9.490;2022-07-29T07:12:20;96760;;;24.6;54
68628;BME280;55611;48.602;9.490;2022-07-29T07:14:51;96760;;;24.7;54
68628;BME280;55611;48.602;9.490;2022-07-29T07:17:22;96770;;;24.9;54
68628;BME280;55611;48.602;9.490;2022-07-29T07:19:52;96770;;;25.1;54
68628;BME280;55611;48.602;9.490;2022-07-29T07:22:23;96770;;;25.1;53.5
68628;BME280;55611;48.602;9.490;2022-07-29T07:24:53;96770;;;25.2;53.5
68628;BME280;55611;48.602;9.490;2022-07-29T07:27:24;96770;;;25.2;53.5
68628;BME280;55611;48.602;9.490;2022-07-29T07:29:54;96770;;;25.3;53.5
68628;BME280;55611;48.602;9.490;2022-07-29T07:32:25;96770;;;25.4;53.5
68628;BME280;55611;48.602;9.490;2022-07-29T07:34:55;96780;;;25.4;53.5
68628;BME280;55611;48.602;9.490;2022-07-29T07:37:26;96770;;;25.4;53.5
68628;BME280;55611;48.602;9.490;2022-07-29T07:39:56;96770;;;25.2;53.5
68628;BME280;55611;48.602;9.490;2022-07-29T07:42:27;96780;;;25.1;53.5
68628;BME280;55611;48.602;9.490;2022-07-29T07:44:57;96770;;;25.1;53.5
68628;BME280;55611;48.602;9.490;2022-07-29T07:47:28;96780;;;25.1;53.5
68628;BME280;55611;48.602;9.490;2022-07-29T07:49:58;96780;;;25;53.5
68628;BME280;55611;48.602;9.490;2022-07-29T07:52:29;96780;;;25;53.5
68628;BME280;55611;48.602;9.490;2022-07-29T07:54:59;96780;;;25.1;54
68628;BME280;55611;48.602;9.490;2022-07-29T07:57:30;96780;;;25.3;54
68628;BME280;55611;48.602;9.490;2022-07-29T08:00:01;96780;;;25.3;54
68628;BME280;55611;48.602;9.490;2022-07-29T08:02:31;96780;;;25.3;54
68628;BME280;55611;48.602;9.490;2022-07-29T08:05:01;96780;;;25.3;54
68628;BME280;55611;48.602;9.490;2022-07-29T08:07:32;96780;;;25.5;53.5
68628;BME280;55611;48.602;9.490;2022-07-29T08:10:03;96780;;;25.6;53.5
68628;BME280;55611;48.602;9.490;2022-07-29T08:12:33;96770;;;25.7;53.5
68628;BME280;55611;48.602;9.490;2022-07-29T08:15:03;96780;;;25.7;53.5
68628;BME280;55611;48.602;9.490;2022-07-29T08:17:34;96770;;;25.8;53.5
68628;BME280;55611;48.602;9.490;2022-07-29T08:20:05;96780;;;25.9;53.5
68628;BME280;55611;48.602;9.490;2022-07-29T08:22:35;96780;;;26;53.5
68628;BME280;55611;48.602;9.490;2022-07-29T08:25:06;96780;;;26.1;53.5
68628;BME280;55611;48.602;9.490;2022-07-29T08:27:36;96780;;;26.3;53.5
68628;BME280;55611;48.602;9.490;2022-07-29T08:30:07;96780;;;26.4;53.5
68628;BME280;55611;48.602;9.490;2022-07-29T08:32:37;96780;;;26.4;53.5
68628;BME280;55611;48.602;9.490;2022-07-29T08:35:08;96780;;;26.3;53.5
68628;BME280;55611;48.602;9.490;2022-07-29T08:37:38;96780;;;26.4;53.5
68628;BME280;55611;48.602;9.490;2022-07-29T08:40:09;96770;;;26.5;53.5
68628;BME280;55611;48.602;9.490;2022-07-29T08:42:39;96770;;;26.6;53.5
68628;BME280;55611;48.602;9.490;2022-07-29T08:45:10;96770;;;26.7;53.5
68628;BME280;55611;48.602;9.490;2022-07-29T08:47:40;96770;;;26.8;53.5
68628;BME280;55611;48.602;9.490;2022-07-29T08:50:11;96780;;;26.9;53.5
68628;BME280;55611;48.602;9.490;2022-07-29T08:52:41;96780;;;26.9;53.5
68628;BME280;55611;48.602;9.490;2022-07-29T08:55:12;96780;;;27;53.5
68628;BME280;55611;48.602;9.490;2022-07-29T08:57:42;96770;;;27;53.5
68628;BME280;55611;48.602;9.490;2022-07-29T09:00:13;96770;;;27;53.5
68628;BME280;55611;48.602;9.490;2022-07-29T09:02:44;96770;;;27.1;53.5
68628;BME280;55611;48.602;9.490;2022-07-29T09:05:14;96770;;;27.1;53.5
68628;BME280;55611;48.602;9.490;2022-07-29T09:07:44;96780;;;27.1;53.5
68628;BME280;55611;48.602;9.490;2022-07-29T09:10:15;96780;;;27.1;53.5
68628;BME280;55611;48.602;9.490;2022-07-29T09:12:45;96780;;;27.2;53.5
68628;BME280;55611;48.602;9.490;2022-07-29T09:15:17;96780;;;27.2;53.5
68628;BME280;55611;48.602;9.490;2022-07-29T09:17:47;96780;;;27.2;53.5
68628;BME280;55611;48.602;9.490;2022-07-29T09:20:18;96790;;;27.3;53.5
68628;BME280;55611;48.602;9.490;2022-07-29T09:22:47;96790;;;27.3;53.5
68628;BME280;55611;48.602;9.490;2022-07-29T09:25:49;96790;;;27.4;53.5
68628;BME280;55611;48.602;9.490;2022-07-29T09:27:49;96790;;;27.6;53.5
68628;BME280;55611;48.602;9.490;2022-07-29T09:30:19;96780;;;27.6;53.5
68628;BME280;55611;48.602;9.490;2022-07-29T09:32:57;96780;;;27.7;53.5
68628;BME280;55611;48.602;9.490;2022-07-29T09:35:21;96780;;;27.8;53.5
68628;BME280;55611;48.602;9.490;2022-07-29T09:37:50;96780;;;27.9;53.5
68628;BME280;55611;48.602;9.490;2022-07-29T09:40:22;96780;;;28;53.5
68628;BME280;55611;48.602;9.490;2022-07-29T09:42:51;96780;;;28.1;53.5
68628;BME280;55611;48.602;9.490;2022-07-29T09:45:37;96770;;;28.1;53.5
68628;BME280;55611;48.602;9.490;2022-07-29T09:47:53;96770;;;28.1;53.5
68628;BME280;55611;48.602;9.490;2022-07-29T09:50:34;96770;;;28.1;53.5
68628;BME280;55611;48.602;9.490;2022-07-29T09:52:53;96770;;;28.1;53.5
68628;BME280;55611;48.602;9.490;2022-07-29T09:55:24;96760;;;28.2;53.5
68628;BME280;55611;48.602;9.490;2022-07-29T09:57:54;96770;;;28.3;53.5
68628;BME280;55611;48.602;9.490;2022-07-29T10:00:25;96760;;;28.5;53.5
68628;BME280;55611;48.602;9.490;2022-07-29T10:02:56;96770;;;28.6;53.5
68628;BME280;55611;48.602;9.490;2022-07-29T10:05:26;96770;;;28.6;53.5
68628;BME280;55611;48.602;9.490;2022-07-29T10:07:57;96770;;;28.7;53.5
68628;BME280;55611;48.602;9.490;2022-07-29T10:10:30;96760;;;28.8;53.5
68628;BME280;55611;48.602;9.490;2022-07-29T10:12:58;96760;;;28.8;53
68628;BME280;55611;48.602;9.490;2022-07-29T10:15:29;96760;;;28.8;53
68628;BME280;55611;48.602;9.490;2022-07-29T10:17:59;96760;;;28.9;53
68628;BME280;55611;48.602;9.490;2022-07-29T10:20:29;96760;;;28.8;53
68628;BME280;55611;48.602;9.490;2022-07-29T10:23:00;96760;;;28.8;53
68628;BME280;55611;48.602;9.490;2022-07-29T10:25:30;96760;;;28.9;53
68628;BME280;55611;48.602;9.490;2022-07-29T10:28:01;96760;;;28.9;53
68628;BME280;55611;48.602;9.490;2022-07-29T10:30:31;96750;;;28.7;53
68628;BME280;55611;48.602;9.490;2022-07-29T10:33:13;96750;;;28.4;53
68628;BME280;55611;48.602;9.490;2022-07-29T10:38:15;96750;;;28.2;53.5
68628;BME280;55611;48.602;9.490;2022-07-29T10:40:51;96740;;;28.3;53.5
68628;BME280;55611;48.602;9.490;2022-07-29T10:43:07;96750;;;28.3;53.5
68628;BME280;55611;48.602;9.490;2022-07-29T10:45:34;96750;;;28.4;53.5
68628;BME280;55611;48.602;9.490;2022-07-29T10:48:05;96750;;;28.6;53.5
68628;BME280;55611;48.602;9.490;2022-07-29T10:51:06;96750;;;28.6;53.5
68628;BME280;55611;48.602;9.490;2022-07-29T10:53:06;96750;;;28.7;53.5
68628;BME280;55611;48.602;9.490;2022-07-29T10:55:37;96740;;;28.9;53
68628;BME280;55611;48.602;9.490;2022-07-29T10:58:15;96740;;;28.9;53
68628;BME280;55611;48.602;9.490;2022-07-29T11:00:37;96730;;;28.9;53
68628;BME280;55611;48.602;9.490;2022-07-29T11:03:08;96730;;;28.9;53
68628;BME280;55611;48.602;9.490;2022-07-29T11:05:54;96720;;;28.9;53
68628;BME280;55611;48.602;9.490;2022-07-29T11:08:19;96720;;;28.9;53
68628;BME280;55611;48.602;9.490;2022-07-29T11:10:40;96730;;;29;53
68628;BME280;55611;48.602;9.490;2022-07-29T11:13:10;96730;;;29;53
68628;BME280;55611;48.602;9.490;2022-07-29T11:15:58;96730;;;28.9;53
68628;BME280;55611;48.602;9.490;2022-07-29T11:20:42;96730;;;29;53
68628;BME280;55611;48.602;9.490;2022-07-29T11:23:43;96720;;;29.1;53
68628;BME280;55611;48.602;9.490;2022-07-29T11:25:43;96720;;;29.1;52.5
68628;BME280;55611;48.602;9.490;2022-07-29T11:28:15;96720;;;29.1;52.5
68628;BME280;55611;48.602;9.490;2022-07-29T11:30:48;96720;;;29.2;52.5
68628;BME280;55611;48.602;9.490;2022-07-29T11:33:26;96730;;;29.3;52.5
68628;BME280;55611;48.602;9.490;2022-07-29T11:35:57;96730;;;29.3;52.5
68628;BME280;55611;48.602;9.490;2022-07-29T11:38:24;96740;;;29.4;52.5
68628;BME280;55611;48.602;9.490;2022-07-29T11:41:18;96740;;;29.5;52
68628;BME280;55611;48.602;9.490;2022-07-29T11:43:40;96750;;;29.4;52
68628;BME280;55611;48.602;9.490;2022-07-29T11:45:47;96750;;;29.3;52
68628;BME280;55611;48.602;9.490;2022-07-29T11:48:18;96750;;;29.1;52
68628;BME280;55611;48.602;9.490;2022-07-29T11:50:48;96760;;;28.9;52
68628;BME280;55611;48.602;9.490;2022-07-29T11:53:18;96770;;;28.8;52.5
68628;BME280;55611;48.602;9.490;2022-07-29T11:55:49;96770;;;28.3;52.5
68628;BME280;55611;48.602;9.490;2022-07-29T11:58:21;96780;;;27.7;52.5
68628;BME280;55611;48.602;9.490;2022-07-29T12:00:50;96780;;;27.3;53
68628;BME280;55611;48.602;9.490;2022-07-29T12:03:24;96780;;;27.3;53
68628;BME280;55611;48.602;9.490;2022-07-29T12:05:51;96780;;;27.3;53
68628;BME280;55611;48.602;9.490;2022-07-29T12:08:22;96780;;;27.3;53
68628;BME280;55611;48.602;9.490;2022-07-29T12:10:52;96770;;;27.3;53
68628;BME280;55611;48.602;9.490;2022-07-29T12:13:22;96780;;;27.2;52.5
68628;BME280;55611;48.602;9.490;2022-07-29T12:15:54;96780;;;27.1;52.5
68628;BME280;55611;48.602;9.490;2022-07-29T12:18:23;96770;;;27.1;52.5
68628;BME280;55611;48.602;9.490;2022-07-29T12:21:01;96770;;;26.8;52.5
68628;BME280;55611;48.602;9.490;2022-07-29T12:23:25;96760;;;26.7;52.5
68628;BME280;55611;48.602;9.490;2022-07-29T12:25:55;96750;;;26.8;52.5
68628;BME280;55611;48.602;9.490;2022-07-29T12:28:25;96760;;;26.9;52.5
68628;BME280;55611;48.602;9.490;2022-07-29T12:30:56;96760;;;26.7;52.5
68628;BME280;55611;48.602;9.490;2022-07-29T12:33:28;96770;;;26.7;52.5
68628;BME280;55611;48.602;9.490;2022-07-29T12:35:58;96780;;;26.8;52.5
68628;BME280;55611;48.602;9.490;2022-07-29T12:38:28;96780;;;26.8;52.5
68628;BME280;55611;48.602;9.490;2022-07-29T12:40:58;96780;;;26.8;52.5
68628;BME280;55611;48.602;9.490;2022-07-29T12:43:29;96770;;;26.8;52.5
68628;BME280;55611;48.602;9.490;2022-07-29T12:46:11;96780;;;26.7;52.5
68628;BME280;55611;48.602;9.490;2022-07-29T12:48:38;96790;;;26.6;52.5
68628;BME280;55611;48.602;9.490;2022-07-29T12:51:01;96790;;;26.6;52.5
68628;BME280;55611;48.602;9.490;2022-07-29T12:53:31;96810;;;26.5;52.5
68628;BME280;55611;48.602;9.490;2022-07-29T12:56:02;96820;;;26.3;52.5
68628;BME280;55611;48.602;9.490;2022-07-29T12:58:34;96830;;;26.2;52.5
68628;BME280;55611;48.602;9.490;2022-07-29T13:01:07;96830;;;26.2;52.5
68628;BME280;55611;48.602;9.490;2022-07-29T13:04:04;96840;;;26.1;52.5
68628;BME280;55611;48.602;9.490;2022-07-29T13:06:03;96830;;;26;52.5
68628;BME280;55611;48.602;9.490;2022-07-29T13:08:34;96840;;;25.8;52.5
68628;BME280;55611;48.602;9.490;2022-07-29T13:11:04;96830;;;25.7;52.5
68628;BME280;55611;48.602;9.490;2022-07-29T13:13:35;96840;;;25.6;52.5
68628;BME280;55611;48.602;9.490;2022-07-29T13:16:06;96840;;;25.5;52.5
68628;BME280;55611;48.602;9.490;2022-07-29T13:18:36;96830;;;25.6;52.5
68628;BME280;55611;48.602;9.490;2022-07-29T13:21:10;96830;;;25.6;52.5
68628;BME280;55611;48.602;9.490;2022-07-29T13:23:37;96830;;;25.6;52.5
68628;BME280;55611;48.602;9.490;2022-07-29T13:26:08;96820;;;25.6;52.5
68628;BME280;55611;48.602;9.490;2022-07-29T13:28:38;96810;;;25.7;52.5
68628;BME280;55611;48.602;9.490;2022-07-29T13:31:08;96810;;;25.8;52.5
68628;BME280;55611;48.602;9.490;2022-07-29T13:33:39;96800;;;26;52.5
68628;BME280;55611;48.602;9.490;2022-07-29T13:36:10;96790;;;26.3;52.5
68628;BME280;55611;48.602;9.490;2022-07-29T13:38:40;96790;;;26.5;52.5
68628;BME280;55611;48.602;9.490;2022-07-29T13:51:23;96790;;;27.1;52
68628;BME280;55611;48.602;9.490;2022-07-29T13:53:53;96800;;;27.2;52
68628;BME280;55611;48.602;9.490;2022-07-29T13:58:42;96790;;;27.1;52
68628;BME280;55611;48.602;9.490;2022-07-29T14:01:13;96800;;;27.1;52
68628;BME280;55611;48.602;9.490;2022-07-29T14:03:44;96800;;;26.9;52
68628;BME280;55611;48.602;9.490;2022-07-29T14:06:14;96810;;;26.7;52
68628;BME280;55611;48.602;9.490;2022-07-29T14:08:45;96820;;;26.4;52
68628;BME280;55611;48.602;9.490;2022-07-29T14:11:15;96820;;;26.2;52
68628;BME280;55611;48.602;9.490;2022-07-29T14:13:46;96810;;;26;52
68628;BME280;55611;48.602;9.490;2022-07-29T14:16:16;96810;;;25.7;52
68628;BME280;55611;48.602;9.490;2022-07-29T14:18:47;96800;;;25.3;52.5
68628;BME280;55611;48.602;9.490;2022-07-29T14:21:17;96800;;;25;52.5
68628;BME280;55611;48.602;9.490;2022-07-29T14:23:48;96790;;;24.8;52.5
68628;BME280;55611;48.602;9.490;2022-07-29T14:26:18;96790;;;24.8;53
68628;BME280;55611;48.602;9.490;2022-07-29T14:28:49;96790;;;25;53
68628;BME280;55611;48.602;9.490;2022-07-29T14:31:19;96800;;;25.1;53
68628;BME280;55611;48.602;9.490;2022-07-29T14:33:50;96800;;;25.3;52.5
68628;BME280;55611;48.602;9.490;2022-07-29T14:36:20;96800;;;25.4;52.5
68628;BME280;55611;48.602;9.490;2022-07-29T14:38:51;96800;;;25.5;52.5
68628;BME280;55611;48.602;9.490;2022-07-29T14:41:21;96800;;;25.6;52.5
68628;BME280;55611;48.602;9.490;2022-07-29T14:43:52;96800;;;25.5;52.5
68628;BME280;55611;48.602;9.490;2022-07-29T14:46:22;96800;;;25.5;52.5
68628;BME280;55611;48.602;9.490;2022-07-29T14:48:53;96800;;;25.5;52.5